sensor_id;sensor_type;location;lat;lon;timestamp;temperature;humidity
563;DHT22;266;49.514;8.294;2022-11-25T00:01:05;3.90;99.90
563;DHT22;266;49.514;8.294;2022-11-25T00:03:33;4.00;99.90
563;DHT22;266;49.514;8.294;2022-11-25T00:06:10;4.00;99.90
563;DHT22;266;49.514;8.294;2022-11-25T00:08:38;4.00;99.90
563;DHT22;266;49.514;8.294;2022-11-25T00:11:08;3.90;99.90
563;DHT22;266;49.514;8.294;2022-11-25T00:13:37;3.80;99.90
563;DHT22;266;49.514;8.294;2022-11-25T00:16:08;3.80;99.90
563;DHT22;266;49.514;8.294;2022-11-25T00:18:36;3.70;99.90
563;DHT22;266;49.514;8.294;2022-11-25T00:21:05;3.70;99.90
563;DHT22;266;49.514;8.294;2022-11-25T00:23:34;3.70;99.90
563;DHT22;266;49.514;8.294;2022-11-25T00:26:09;3.70;99.90
563;DHT22;266;49.514;8.294;2022-11-25T00:28:38;3.60;99.90
563;DHT22;266;49.514;8.294;2022-11-25T00:31:07;3.50;99.90
563;DHT22;266;49.514;8.294;2022-11-25T00:33:35;3.50;99.90
563;DHT22;266;49.514;8.294;2022-11-25T00:36:05;3.60;99.90
563;DHT22;266;49.514;8.294;2022-11-25T00:38:33;3.80;99.90
563;DHT22;266;49.514;8.294;2022-11-25T00:41:01;3.80;99.90
563;DHT22;266;49.514;8.294;2022-11-25T00:43:48;3.70;99.90
563;DHT22;266;49.514;8.294;2022-11-25T00:46:33;3.50;99.90
563;DHT22;266;49.514;8.294;2022-11-25T00:49:01;3.40;99.90
563;DHT22;266;49.514;8.294;2022-11-25T00:51:29;3.30;99.90
563;DHT22;266;49.514;8.294;2022-11-25T00:53:57;3.30;99.90
563;DHT22;266;49.514;8.294;2022-11-25T00:56:25;3.20;99.90
563;DHT22;266;49.514;8.294;2022-11-25T00:58:55;3.20;99.90
563;DHT22;266;49.514;8.294;2022-11-25T01:01:23;3.20;99.90
563;DHT22;266;49.514;8.294;2022-11-25T01:03:52;3.20;99.90
563;DHT22;266;49.514;8.294;2022-11-25T01:06:20;3.10;99.90
563;DHT22;266;49.514;8.294;2022-11-25T01:08:49;3.10;99.90
563;DHT22;266;49.514;8.294;2022-11-25T01:11:18;3.10;99.90
563;DHT22;266;49.514;8.294;2022-11-25T01:13:47;3.10;99.90
563;DHT22;266;49.514;8.294;2022-11-25T01:16:18;3.00;99.90
563;DHT22;266;49.514;8.294;2022-11-25T01:18:46;3.00;99.90
563;DHT22;266;49.514;8.294;2022-11-25T01:21:16;3.10;99.90
563;DHT22;266;49.514;8.294;2022-11-25T01:23:45;3.20;99.90
563;DHT22;266;49.514;8.294;2022-11-25T01:26:15;3.30;99.90
563;DHT22;266;49.514;8.294;2022-11-25T01:28:44;3.20;99.90
563;DHT22;266;49.514;8.294;2022-11-25T01:31:13;3.20;99.90
563;DHT22;266;49.514;8.294;2022-11-25T01:33:44;3.30;99.90
563;DHT22;266;49.514;8.294;2022-11-25T01:36:14;3.30;99.90
563;DHT22;266;49.514;8.294;2022-11-25T01:38:43;3.50;99.90
563;DHT22;266;49.514;8.294;2022-11-25T01:41:13;3.50;99.90
563;DHT22;266;49.514;8.294;2022-11-25T01:43:41;3.50;99.90
563;DHT22;266;49.514;8.294;2022-11-25T01:46:19;3.70;99.90
563;DHT22;266;49.514;8.294;2022-11-25T01:48:53;3.80;99.90
563;DHT22;266;49.514;8.294;2022-11-25T01:51:27;3.90;99.90
563;DHT22;266;49.514;8.294;2022-11-25T01:53:58;4.00;99.90
563;DHT22;266;49.514;8.294;2022-11-25T01:56:31;4.00;99.90
563;DHT22;266;49.514;8.294;2022-11-25T01:59:00;4.20;99.90
563;DHT22;266;49.514;8.294;2022-11-25T02:01:29;4.20;99.90
563;DHT22;266;49.514;8.294;2022-11-25T02:03:59;4.30;99.90
563;DHT22;266;49.514;8.294;2022-11-25T02:06:30;4.40;99.90
563;DHT22;266;49.514;8.294;2022-11-25T02:09:05;4.40;99.90
563;DHT22;266;49.514;8.294;2022-11-25T02:11:36;4.40;99.90
563;DHT22;266;49.514;8.294;2022-11-25T02:14:06;4.50;99.90
563;DHT22;266;49.514;8.294;2022-11-25T02:16:35;4.50;99.90
563;DHT22;266;49.514;8.294;2022-11-25T02:19:05;4.50;99.90
563;DHT22;266;49.514;8.294;2022-11-25T02:21:40;4.50;99.90
563;DHT22;266;49.514;8.294;2022-11-25T02:24:15;4.50;99.90
563;DHT22;266;49.514;8.294;2022-11-25T02:26:46;4.50;99.90
563;DHT22;266;49.514;8.294;2022-11-25T02:29:14;4.50;99.90
563;DHT22;266;49.514;8.294;2022-11-25T02:31:43;4.50;99.90
563;DHT22;266;49.514;8.294;2022-11-25T02:34:11;4.50;99.90
563;DHT22;266;49.514;8.294;2022-11-25T02:36:39;4.50;99.90
563;DHT22;266;49.514;8.294;2022-11-25T02:39:07;4.40;99.90
563;DHT22;266;49.514;8.294;2022-11-25T02:41:37;4.50;99.90
563;DHT22;266;49.514;8.294;2022-11-25T02:44:07;4.50;99.90
563;DHT22;266;49.514;8.294;2022-11-25T02:46:35;4.50;99.90
563;DHT22;266;49.514;8.294;2022-11-25T02:49:03;4.40;99.90
563;DHT22;266;49.514;8.294;2022-11-25T02:51:37;4.40;99.90
563;DHT22;266;49.514;8.294;2022-11-25T02:54:05;4.40;99.90
563;DHT22;266;49.514;8.294;2022-11-25T02:56:35;4.40;99.90
563;DHT22;266;49.514;8.294;2022-11-25T02:59:03;4.40;99.90
563;DHT22;266;49.514;8.294;2022-11-25T03:01:33;4.40;99.90
563;DHT22;266;49.514;8.294;2022-11-25T03:04:02;4.40;99.90
563;DHT22;266;49.514;8.294;2022-11-25T03:06:30;4.40;99.90
563;DHT22;266;49.514;8.294;2022-11-25T03:08:58;4.40;99.90
563;DHT22;266;49.514;8.294;2022-11-25T03:11:27;4.40;99.90
563;DHT22;266;49.514;8.294;2022-11-25T03:14:08;4.40;99.90
563;DHT22;266;49.514;8.294;2022-11-25T03:16:38;4.40;99.90
563;DHT22;266;49.514;8.294;2022-11-25T03:19:06;4.40;99.90
563;DHT22;266;49.514;8.294;2022-11-25T03:21:35;4.40;99.90
563;DHT22;266;49.514;8.294;2022-11-25T03:24:03;4.40;99.90
563;DHT22;266;49.514;8.294;2022-11-25T03:26:32;4.40;99.90
563;DHT22;266;49.514;8.294;2022-11-25T03:28:59;4.40;99.90
563;DHT22;266;49.514;8.294;2022-11-25T03:31:27;4.40;99.90
563;DHT22;266;49.514;8.294;2022-11-25T03:33:57;4.50;99.90
563;DHT22;266;49.514;8.294;2022-11-25T03:36:25;4.50;99.90
563;DHT22;266;49.514;8.294;2022-11-25T03:38:53;4.50;99.90
563;DHT22;266;49.514;8.294;2022-11-25T03:41:21;4.50;99.90
563;DHT22;266;49.514;8.294;2022-11-25T03:43:49;4.40;99.90
563;DHT22;266;49.514;8.294;2022-11-25T03:46:17;4.60;99.90
563;DHT22;266;49.514;8.294;2022-11-25T03:48:45;4.70;99.90
563;DHT22;266;49.514;8.294;2022-11-25T03:51:14;4.70;99.90
563;DHT22;266;49.514;8.294;2022-11-25T03:53:42;4.80;99.90
563;DHT22;266;49.514;8.294;2022-11-25T03:56:10;4.70;99.90
563;DHT22;266;49.514;8.294;2022-11-25T03:58:38;4.80;99.90
563;DHT22;266;49.514;8.294;2022-11-25T04:01:06;4.80;99.90
563;DHT22;266;49.514;8.294;2022-11-25T04:03:34;4.80;99.90
563;DHT22;266;49.514;8.294;2022-11-25T04:06:02;4.80;99.90
563;DHT22;266;49.514;8.294;2022-11-25T04:08:31;4.80;99.90
563;DHT22;266;49.514;8.294;2022-11-25T04:11:00;4.90;99.90
563;DHT22;266;49.514;8.294;2022-11-25T04:13:28;4.90;99.90
563;DHT22;266;49.514;8.294;2022-11-25T04:15:55;4.90;99.90
563;DHT22;266;49.514;8.294;2022-11-25T04:18:23;4.90;99.90
563;DHT22;266;49.514;8.294;2022-11-25T04:20:51;5.00;99.90
563;DHT22;266;49.514;8.294;2022-11-25T04:23:19;5.00;99.90
563;DHT22;266;49.514;8.294;2022-11-25T04:25:49;5.00;99.90
563;DHT22;266;49.514;8.294;2022-11-25T04:28:17;5.00;99.90
563;DHT22;266;49.514;8.294;2022-11-25T04:30:45;5.00;99.90
563;DHT22;266;49.514;8.294;2022-11-25T04:33:13;5.00;99.90
563;DHT22;266;49.514;8.294;2022-11-25T04:35:41;5.00;99.90
563;DHT22;266;49.514;8.294;2022-11-25T04:38:09;5.00;99.90
563;DHT22;266;49.514;8.294;2022-11-25T04:40:37;5.00;99.90
563;DHT22;266;49.514;8.294;2022-11-25T04:43:06;5.00;99.90
563;DHT22;266;49.514;8.294;2022-11-25T04:45:36;4.90;99.90
563;DHT22;266;49.514;8.294;2022-11-25T04:48:24;5.00;99.90
563;DHT22;266;49.514;8.294;2022-11-25T04:50:52;5.00;99.90
563;DHT22;266;49.514;8.294;2022-11-25T04:53:20;5.00;99.90
563;DHT22;266;49.514;8.294;2022-11-25T04:55:48;4.90;99.90
563;DHT22;266;49.514;8.294;2022-11-25T04:58:17;4.90;99.90
563;DHT22;266;49.514;8.294;2022-11-25T05:01:06;4.80;99.90
563;DHT22;266;49.514;8.294;2022-11-25T05:03:33;4.70;99.90
563;DHT22;266;49.514;8.294;2022-11-25T05:06:04;4.60;99.90
563;DHT22;266;49.514;8.294;2022-11-25T05:08:32;4.70;99.90
563;DHT22;266;49.514;8.294;2022-11-25T05:11:01;4.90;99.90
563;DHT22;266;49.514;8.294;2022-11-25T05:13:30;4.90;99.90
563;DHT22;266;49.514;8.294;2022-11-25T05:15:58;5.00;99.90
563;DHT22;266;49.514;8.294;2022-11-25T05:18:26;5.00;99.90
563;DHT22;266;49.514;8.294;2022-11-25T05:20:54;5.00;99.90
563;DHT22;266;49.514;8.294;2022-11-25T05:23:22;5.00;99.90
563;DHT22;266;49.514;8.294;2022-11-25T05:25:50;5.00;99.90
563;DHT22;266;49.514;8.294;2022-11-25T05:28:18;5.10;99.90
563;DHT22;266;49.514;8.294;2022-11-25T05:30:47;5.10;99.90
563;DHT22;266;49.514;8.294;2022-11-25T05:33:15;5.20;99.90
563;DHT22;266;49.514;8.294;2022-11-25T05:35:44;5.20;99.90
563;DHT22;266;49.514;8.294;2022-11-25T05:38:12;5.20;99.90
563;DHT22;266;49.514;8.294;2022-11-25T05:40:39;5.20;99.90
563;DHT22;266;49.514;8.294;2022-11-25T05:43:08;5.30;99.90
563;DHT22;266;49.514;8.294;2022-11-25T05:45:37;5.30;99.90
563;DHT22;266;49.514;8.294;2022-11-25T05:48:07;5.30;99.90
563;DHT22;266;49.514;8.294;2022-11-25T05:50:36;5.30;99.90
563;DHT22;266;49.514;8.294;2022-11-25T05:53:04;5.30;99.90
563;DHT22;266;49.514;8.294;2022-11-25T05:55:32;5.30;99.90
563;DHT22;266;49.514;8.294;2022-11-25T05:58:00;5.30;99.90
563;DHT22;266;49.514;8.294;2022-11-25T06:00:30;5.30;99.90
563;DHT22;266;49.514;8.294;2022-11-25T06:02:59;5.20;99.90
563;DHT22;266;49.514;8.294;2022-11-25T06:05:29;5.20;99.90
563;DHT22;266;49.514;8.294;2022-11-25T06:07:58;5.20;99.90
563;DHT22;266;49.514;8.294;2022-11-25T06:10:27;5.20;99.90
563;DHT22;266;49.514;8.294;2022-11-25T06:12:55;5.30;99.90
563;DHT22;266;49.514;8.294;2022-11-25T06:15:23;5.30;99.90
563;DHT22;266;49.514;8.294;2022-11-25T06:17:51;5.30;99.90
563;DHT22;266;49.514;8.294;2022-11-25T06:20:19;5.20;99.90
563;DHT22;266;49.514;8.294;2022-11-25T06:22:48;5.20;99.90
563;DHT22;266;49.514;8.294;2022-11-25T06:25:16;5.20;99.90
563;DHT22;266;49.514;8.294;2022-11-25T06:27:44;5.30;99.90
563;DHT22;266;49.514;8.294;2022-11-25T06:30:33;5.30;99.90
563;DHT22;266;49.514;8.294;2022-11-25T06:33:00;5.30;99.90
563;DHT22;266;49.514;8.294;2022-11-25T06:35:28;5.20;99.90
563;DHT22;266;49.514;8.294;2022-11-25T06:37:58;5.20;99.90
563;DHT22;266;49.514;8.294;2022-11-25T06:40:27;5.20;99.90
563;DHT22;266;49.514;8.294;2022-11-25T06:42:55;5.20;99.90
563;DHT22;266;49.514;8.294;2022-11-25T06:45:23;5.20;99.90
563;DHT22;266;49.514;8.294;2022-11-25T06:47:51;5.20;99.90
563;DHT22;266;49.514;8.294;2022-11-25T06:50:19;5.40;99.90
563;DHT22;266;49.514;8.294;2022-11-25T06:52:47;5.40;99.90
563;DHT22;266;49.514;8.294;2022-11-25T06:55:16;5.40;99.90
563;DHT22;266;49.514;8.294;2022-11-25T06:57:44;5.50;99.90
563;DHT22;266;49.514;8.294;2022-11-25T07:00:13;5.50;99.90
563;DHT22;266;49.514;8.294;2022-11-25T07:02:42;5.40;99.90
563;DHT22;266;49.514;8.294;2022-11-25T07:05:14;5.40;99.90
563;DHT22;266;49.514;8.294;2022-11-25T07:07:42;5.50;99.90
563;DHT22;266;49.514;8.294;2022-11-25T07:10:10;5.40;99.90
563;DHT22;266;49.514;8.294;2022-11-25T07:12:40;5.40;99.90
563;DHT22;266;49.514;8.294;2022-11-25T07:15:09;5.40;99.90
563;DHT22;266;49.514;8.294;2022-11-25T07:17:38;5.30;99.90
563;DHT22;266;49.514;8.294;2022-11-25T07:20:07;5.30;99.90
563;DHT22;266;49.514;8.294;2022-11-25T07:22:35;5.30;99.90
563;DHT22;266;49.514;8.294;2022-11-25T07:25:03;5.30;99.90
563;DHT22;266;49.514;8.294;2022-11-25T07:27:32;5.30;99.90
563;DHT22;266;49.514;8.294;2022-11-25T07:30:01;5.40;99.90
563;DHT22;266;49.514;8.294;2022-11-25T07:32:49;5.40;99.90
563;DHT22;266;49.514;8.294;2022-11-25T07:35:19;5.50;99.90
563;DHT22;266;49.514;8.294;2022-11-25T07:37:47;5.50;99.90
563;DHT22;266;49.514;8.294;2022-11-25T07:40:15;5.50;99.90
563;DHT22;266;49.514;8.294;2022-11-25T07:42:43;5.60;99.90
563;DHT22;266;49.514;8.294;2022-11-25T07:45:12;5.60;99.90
563;DHT22;266;49.514;8.294;2022-11-25T07:47:40;5.80;99.90
563;DHT22;266;49.514;8.294;2022-11-25T07:50:08;5.80;99.90
563;DHT22;266;49.514;8.294;2022-11-25T07:52:37;5.80;99.90
563;DHT22;266;49.514;8.294;2022-11-25T07:55:06;5.90;99.90
563;DHT22;266;49.514;8.294;2022-11-25T07:57:35;5.90;99.90
563;DHT22;266;49.514;8.294;2022-11-25T08:00:04;6.00;99.90
563;DHT22;266;49.514;8.294;2022-11-25T08:02:33;6.00;99.90
563;DHT22;266;49.514;8.294;2022-11-25T08:05:01;6.00;99.90
563;DHT22;266;49.514;8.294;2022-11-25T08:07:30;6.10;99.90
563;DHT22;266;49.514;8.294;2022-11-25T08:10:02;6.10;99.90
563;DHT22;266;49.514;8.294;2022-11-25T08:12:31;6.10;99.90
563;DHT22;266;49.514;8.294;2022-11-25T08:14:59;6.10;99.90
563;DHT22;266;49.514;8.294;2022-11-25T08:17:27;6.10;99.90
563;DHT22;266;49.514;8.294;2022-11-25T08:19:56;6.10;99.90
563;DHT22;266;49.514;8.294;2022-11-25T08:22:24;6.10;99.90
563;DHT22;266;49.514;8.294;2022-11-25T08:24:52;6.10;99.90
563;DHT22;266;49.514;8.294;2022-11-25T08:27:20;6.10;99.90
563;DHT22;266;49.514;8.294;2022-11-25T08:29:48;6.10;99.90
563;DHT22;266;49.514;8.294;2022-11-25T08:32:16;6.20;99.90
563;DHT22;266;49.514;8.294;2022-11-25T08:34:44;6.10;99.90
563;DHT22;266;49.514;8.294;2022-11-25T08:37:13;6.10;99.90
563;DHT22;266;49.514;8.294;2022-11-25T08:39:41;6.10;99.90
563;DHT22;266;49.514;8.294;2022-11-25T08:42:19;6.10;99.90
563;DHT22;266;49.514;8.294;2022-11-25T08:44:50;6.10;99.90
563;DHT22;266;49.514;8.294;2022-11-25T08:47:18;6.10;99.90
563;DHT22;266;49.514;8.294;2022-11-25T08:49:49;6.10;99.90
563;DHT22;266;49.514;8.294;2022-11-25T08:52:19;6.10;99.90
563;DHT22;266;49.514;8.294;2022-11-25T08:54:48;6.10;99.90
563;DHT22;266;49.514;8.294;2022-11-25T08:57:16;6.10;99.90
563;DHT22;266;49.514;8.294;2022-11-25T08:59:44;6.10;99.90
563;DHT22;266;49.514;8.294;2022-11-25T09:02:15;6.20;99.90
563;DHT22;266;49.514;8.294;2022-11-25T09:04:44;6.20;99.90
563;DHT22;266;49.514;8.294;2022-11-25T09:07:12;6.30;99.90
563;DHT22;266;49.514;8.294;2022-11-25T09:09:41;6.30;99.90
563;DHT22;266;49.514;8.294;2022-11-25T09:12:09;6.30;99.90
563;DHT22;266;49.514;8.294;2022-11-25T09:14:37;6.30;99.90
563;DHT22;266;49.514;8.294;2022-11-25T09:17:10;6.20;99.90
563;DHT22;266;49.514;8.294;2022-11-25T09:19:38;6.30;99.90
563;DHT22;266;49.514;8.294;2022-11-25T09:22:06;6.40;99.90
563;DHT22;266;49.514;8.294;2022-11-25T09:24:34;6.50;99.90
563;DHT22;266;49.514;8.294;2022-11-25T09:27:03;6.50;99.90
563;DHT22;266;49.514;8.294;2022-11-25T09:29:32;6.60;99.90
563;DHT22;266;49.514;8.294;2022-11-25T09:32:00;6.60;99.90
563;DHT22;266;49.514;8.294;2022-11-25T09:34:28;6.70;99.90
563;DHT22;266;49.514;8.294;2022-11-25T09:36:56;6.70;99.90
563;DHT22;266;49.514;8.294;2022-11-25T09:39:24;6.80;99.90
563;DHT22;266;49.514;8.294;2022-11-25T09:42:05;6.90;99.90
563;DHT22;266;49.514;8.294;2022-11-25T09:45:06;6.90;99.90
563;DHT22;266;49.514;8.294;2022-11-25T09:48:05;7.00;99.90
563;DHT22;266;49.514;8.294;2022-11-25T09:50:48;7.10;99.90
563;DHT22;266;49.514;8.294;2022-11-25T09:53:29;7.10;99.90
563;DHT22;266;49.514;8.294;2022-11-25T09:56:03;7.10;99.90
563;DHT22;266;49.514;8.294;2022-11-25T09:58:43;7.20;99.90
563;DHT22;266;49.514;8.294;2022-11-25T10:01:17;7.20;99.90
563;DHT22;266;49.514;8.294;2022-11-25T10:03:48;7.30;99.90
563;DHT22;266;49.514;8.294;2022-11-25T10:06:20;7.30;99.90
563;DHT22;266;49.514;8.294;2022-11-25T10:08:52;7.40;99.90
563;DHT22;266;49.514;8.294;2022-11-25T10:11:29;7.40;99.90
563;DHT22;266;49.514;8.294;2022-11-25T10:14:04;7.50;99.90
563;DHT22;266;49.514;8.294;2022-11-25T10:16:38;7.50;99.90
563;DHT22;266;49.514;8.294;2022-11-25T10:19:35;7.50;99.90
563;DHT22;266;49.514;8.294;2022-11-25T10:22:17;7.60;99.90
563;DHT22;266;49.514;8.294;2022-11-25T10:24:47;7.60;99.90
563;DHT22;266;49.514;8.294;2022-11-25T10:27:23;7.70;99.90
563;DHT22;266;49.514;8.294;2022-11-25T10:30:00;7.70;99.90
563;DHT22;266;49.514;8.294;2022-11-25T10:32:35;7.70;99.90
563;DHT22;266;49.514;8.294;2022-11-25T10:35:14;7.80;99.90
563;DHT22;266;49.514;8.294;2022-11-25T10:37:46;7.80;99.90
563;DHT22;266;49.514;8.294;2022-11-25T10:40:16;7.90;99.90
563;DHT22;266;49.514;8.294;2022-11-25T10:42:44;7.90;99.90
563;DHT22;266;49.514;8.294;2022-11-25T10:45:14;7.90;99.90
563;DHT22;266;49.514;8.294;2022-11-25T10:47:57;7.90;99.90
563;DHT22;266;49.514;8.294;2022-11-25T10:50:32;7.90;99.90
563;DHT22;266;49.514;8.294;2022-11-25T10:53:12;7.90;99.90
563;DHT22;266;49.514;8.294;2022-11-25T10:55:56;8.00;99.90
563;DHT22;266;49.514;8.294;2022-11-25T10:58:30;8.00;99.90
563;DHT22;266;49.514;8.294;2022-11-25T11:01:05;8.00;99.90
563;DHT22;266;49.514;8.294;2022-11-25T11:03:33;8.00;99.90
563;DHT22;266;49.514;8.294;2022-11-25T11:06:02;8.00;99.90
563;DHT22;266;49.514;8.294;2022-11-25T11:08:37;8.10;99.90
563;DHT22;266;49.514;8.294;2022-11-25T11:11:17;8.20;99.90
563;DHT22;266;49.514;8.294;2022-11-25T11:13:48;8.30;99.90
563;DHT22;266;49.514;8.294;2022-11-25T11:16:30;8.40;99.90
563;DHT22;266;49.514;8.294;2022-11-25T11:18:59;8.40;99.90
563;DHT22;266;49.514;8.294;2022-11-25T11:21:30;8.40;99.90
563;DHT22;266;49.514;8.294;2022-11-25T11:23:59;8.40;99.90
563;DHT22;266;49.514;8.294;2022-11-25T11:26:29;8.40;99.90
563;DHT22;266;49.514;8.294;2022-11-25T11:29:00;8.40;99.90
563;DHT22;266;49.514;8.294;2022-11-25T11:31:33;8.40;99.90
563;DHT22;266;49.514;8.294;2022-11-25T11:34:14;8.50;99.90
563;DHT22;266;49.514;8.294;2022-11-25T11:36:54;8.70;99.90
563;DHT22;266;49.514;8.294;2022-11-25T11:39:41;8.80;99.90
563;DHT22;266;49.514;8.294;2022-11-25T11:42:20;8.90;99.90
563;DHT22;266;49.514;8.294;2022-11-25T11:45:00;9.00;99.90
563;DHT22;266;49.514;8.294;2022-11-25T11:47:51;9.10;99.90
563;DHT22;266;49.514;8.294;2022-11-25T11:50:27;9.20;99.90
563;DHT22;266;49.514;8.294;2022-11-25T11:53:05;9.30;99.90
563;DHT22;266;49.514;8.294;2022-11-25T11:55:47;9.30;99.90
563;DHT22;266;49.514;8.294;2022-11-25T11:58:47;9.40;99.90
563;DHT22;266;49.514;8.294;2022-11-25T12:01:33;9.30;99.90
563;DHT22;266;49.514;8.294;2022-11-25T12:04:14;9.20;99.90
563;DHT22;266;49.514;8.294;2022-11-25T12:06:57;9.10;99.90
563;DHT22;266;49.514;8.294;2022-11-25T12:09:28;9.10;99.90
563;DHT22;266;49.514;8.294;2022-11-25T12:12:03;9.10;99.90
563;DHT22;266;49.514;8.294;2022-11-25T12:14:35;9.20;99.90
563;DHT22;266;49.514;8.294;2022-11-25T12:17:12;9.30;99.90
563;DHT22;266;49.514;8.294;2022-11-25T12:19:49;9.40;99.90
563;DHT22;266;49.514;8.294;2022-11-25T12:22:21;9.50;99.90
563;DHT22;266;49.514;8.294;2022-11-25T12:24:58;9.70;99.90
563;DHT22;266;49.514;8.294;2022-11-25T12:27:33;9.80;99.90
563;DHT22;266;49.514;8.294;2022-11-25T12:30:06;9.90;99.90
563;DHT22;266;49.514;8.294;2022-11-25T12:32:45;10.10;99.90
563;DHT22;266;49.514;8.294;2022-11-25T12:35:21;10.10;99.90
563;DHT22;266;49.514;8.294;2022-11-25T12:37:56;10.20;99.90
563;DHT22;266;49.514;8.294;2022-11-25T12:40:29;10.20;99.90
563;DHT22;266;49.514;8.294;2022-11-25T12:43:08;10.30;99.90
563;DHT22;266;49.514;8.294;2022-11-25T12:45:38;10.40;99.90
563;DHT22;266;49.514;8.294;2022-11-25T12:48:09;10.40;99.90
563;DHT22;266;49.514;8.294;2022-11-25T12:50:50;10.50;99.90
563;DHT22;266;49.514;8.294;2022-11-25T12:53:27;10.60;99.90
563;DHT22;266;49.514;8.294;2022-11-25T12:56:01;10.70;99.90
563;DHT22;266;49.514;8.294;2022-11-25T12:58:46;10.80;99.90
563;DHT22;266;49.514;8.294;2022-11-25T13:01:42;10.90;99.90
563;DHT22;266;49.514;8.294;2022-11-25T13:04:27;11.20;99.90
563;DHT22;266;49.514;8.294;2022-11-25T13:07:25;11.30;99.90
563;DHT22;266;49.514;8.294;2022-11-25T13:10:26;11.30;99.90
563;DHT22;266;49.514;8.294;2022-11-25T13:13:23;11.30;99.90
563;DHT22;266;49.514;8.294;2022-11-25T13:15:55;11.40;99.90
563;DHT22;266;49.514;8.294;2022-11-25T13:18:29;11.30;99.90
563;DHT22;266;49.514;8.294;2022-11-25T13:21:05;11.30;99.90
563;DHT22;266;49.514;8.294;2022-11-25T13:23:45;11.40;99.90
563;DHT22;266;49.514;8.294;2022-11-25T13:26:45;11.40;99.90
563;DHT22;266;49.514;8.294;2022-11-25T13:32:48;11.50;99.90
563;DHT22;266;49.514;8.294;2022-11-25T13:35:35;11.60;99.90
563;DHT22;266;49.514;8.294;2022-11-25T13:41:00;11.60;99.90
563;DHT22;266;49.514;8.294;2022-11-25T13:43:29;11.60;99.90
563;DHT22;266;49.514;8.294;2022-11-25T13:45:57;11.60;99.90
563;DHT22;266;49.514;8.294;2022-11-25T13:48:27;11.60;99.90
563;DHT22;266;49.514;8.294;2022-11-25T13:51:15;11.60;99.90
563;DHT22;266;49.514;8.294;2022-11-25T13:53:50;11.60;99.90
563;DHT22;266;49.514;8.294;2022-11-25T13:56:28;11.50;99.90
563;DHT22;266;49.514;8.294;2022-11-25T13:59:18;11.40;99.90
563;DHT22;266;49.514;8.294;2022-11-25T14:01:52;11.30;99.90
563;DHT22;266;49.514;8.294;2022-11-25T14:04:38;11.20;99.90
563;DHT22;266;49.514;8.294;2022-11-25T14:07:22;11.20;99.90
563;DHT22;266;49.514;8.294;2022-11-25T14:10:08;11.10;99.90
563;DHT22;266;49.514;8.294;2022-11-25T14:12:59;11.00;99.90
563;DHT22;266;49.514;8.294;2022-11-25T14:15:35;11.10;99.90
563;DHT22;266;49.514;8.294;2022-11-25T14:21:43;11.00;99.90
563;DHT22;266;49.514;8.294;2022-11-25T14:24:22;11.00;99.90
563;DHT22;266;49.514;8.294;2022-11-25T14:26:56;11.00;99.90
563;DHT22;266;49.514;8.294;2022-11-25T14:29:29;11.00;99.90
563;DHT22;266;49.514;8.294;2022-11-25T14:32:04;11.00;99.90
563;DHT22;266;49.514;8.294;2022-11-25T14:34:39;11.00;99.90
563;DHT22;266;49.514;8.294;2022-11-25T14:37:11;11.00;99.90
563;DHT22;266;49.514;8.294;2022-11-25T14:39:46;10.90;99.90
563;DHT22;266;49.514;8.294;2022-11-25T14:42:18;10.90;99.90
563;DHT22;266;49.514;8.294;2022-11-25T14:44:50;10.90;99.90
563;DHT22;266;49.514;8.294;2022-11-25T14:47:22;10.90;99.90
563;DHT22;266;49.514;8.294;2022-11-25T14:49:52;10.90;99.90
563;DHT22;266;49.514;8.294;2022-11-25T14:52:40;10.80;99.90
563;DHT22;266;49.514;8.294;2022-11-25T14:55:10;10.80;99.90
563;DHT22;266;49.514;8.294;2022-11-25T14:57:42;10.80;99.90
563;DHT22;266;49.514;8.294;2022-11-25T15:00:14;10.80;99.90
563;DHT22;266;49.514;8.294;2022-11-25T15:02:52;10.80;99.90
563;DHT22;266;49.514;8.294;2022-11-25T15:05:22;10.80;99.90
563;DHT22;266;49.514;8.294;2022-11-25T15:07:58;10.80;99.90
563;DHT22;266;49.514;8.294;2022-11-25T15:10:41;10.80;99.90
563;DHT22;266;49.514;8.294;2022-11-25T15:13:18;10.70;99.90
563;DHT22;266;49.514;8.294;2022-11-25T15:15:51;10.80;99.90
563;DHT22;266;49.514;8.294;2022-11-25T15:18:22;10.70;99.90
563;DHT22;266;49.514;8.294;2022-11-25T15:20:55;10.80;99.90
563;DHT22;266;49.514;8.294;2022-11-25T15:23:27;10.80;99.90
563;DHT22;266;49.514;8.294;2022-11-25T15:25:57;10.80;99.90
563;DHT22;266;49.514;8.294;2022-11-25T15:28:32;10.70;99.90
563;DHT22;266;49.514;8.294;2022-11-25T15:31:06;10.60;99.90
563;DHT22;266;49.514;8.294;2022-11-25T15:33:35;10.60;99.90
563;DHT22;266;49.514;8.294;2022-11-25T15:36:04;10.50;99.90
563;DHT22;266;49.514;8.294;2022-11-25T15:38:39;10.40;99.90
563;DHT22;266;49.514;8.294;2022-11-25T15:41:29;10.30;99.90
563;DHT22;266;49.514;8.294;2022-11-25T15:44:00;10.30;99.90
563;DHT22;266;49.514;8.294;2022-11-25T15:46:33;10.30;99.90
563;DHT22;266;49.514;8.294;2022-11-25T15:49:04;10.20;99.90
563;DHT22;266;49.514;8.294;2022-11-25T15:51:37;10.10;99.90
563;DHT22;266;49.514;8.294;2022-11-25T15:54:15;10.10;99.90
563;DHT22;266;49.514;8.294;2022-11-25T15:56:46;10.00;99.90
563;DHT22;266;49.514;8.294;2022-11-25T15:59:38;9.90;99.90
563;DHT22;266;49.514;8.294;2022-11-25T16:02:31;9.90;99.90
563;DHT22;266;49.514;8.294;2022-11-25T16:05:23;9.70;99.90
563;DHT22;266;49.514;8.294;2022-11-25T16:08:00;9.70;99.90
563;DHT22;266;49.514;8.294;2022-11-25T16:10:31;9.60;99.90
563;DHT22;266;49.514;8.294;2022-11-25T16:13:17;9.50;99.90
563;DHT22;266;49.514;8.294;2022-11-25T16:15:56;9.50;99.90
563;DHT22;266;49.514;8.294;2022-11-25T16:18:31;9.50;99.90
563;DHT22;266;49.514;8.294;2022-11-25T16:21:10;9.50;99.90
563;DHT22;266;49.514;8.294;2022-11-25T16:23:42;9.40;99.90
563;DHT22;266;49.514;8.294;2022-11-25T16:26:16;9.20;99.90
563;DHT22;266;49.514;8.294;2022-11-25T16:28:52;9.10;99.90
563;DHT22;266;49.514;8.294;2022-11-25T16:31:23;9.30;99.90
563;DHT22;266;49.514;8.294;2022-11-25T16:33:54;9.30;99.90
563;DHT22;266;49.514;8.294;2022-11-25T16:36:23;9.20;99.90
563;DHT22;266;49.514;8.294;2022-11-25T16:38:52;9.20;99.90
563;DHT22;266;49.514;8.294;2022-11-25T16:41:22;9.10;99.90
563;DHT22;266;49.514;8.294;2022-11-25T16:43:51;9.00;99.90
563;DHT22;266;49.514;8.294;2022-11-25T16:46:25;8.90;99.90
563;DHT22;266;49.514;8.294;2022-11-25T16:48:54;8.80;99.90
563;DHT22;266;49.514;8.294;2022-11-25T16:51:23;8.70;99.90
563;DHT22;266;49.514;8.294;2022-11-25T16:53:51;8.70;99.90
563;DHT22;266;49.514;8.294;2022-11-25T16:56:23;8.40;99.90
563;DHT22;266;49.514;8.294;2022-11-25T16:58:52;8.30;99.90
563;DHT22;266;49.514;8.294;2022-11-25T17:01:23;8.20;99.90
563;DHT22;266;49.514;8.294;2022-11-25T17:03:53;8.10;99.90
563;DHT22;266;49.514;8.294;2022-11-25T17:06:23;8.10;99.90
563;DHT22;266;49.514;8.294;2022-11-25T17:08:52;8.00;99.90
563;DHT22;266;49.514;8.294;2022-11-25T17:11:25;8.00;99.90
563;DHT22;266;49.514;8.294;2022-11-25T17:13:55;8.00;99.90
563;DHT22;266;49.514;8.294;2022-11-25T17:16:27;8.00;99.90
563;DHT22;266;49.514;8.294;2022-11-25T17:18:58;8.10;99.90
563;DHT22;266;49.514;8.294;2022-11-25T17:21:27;8.10;99.90
563;DHT22;266;49.514;8.294;2022-11-25T17:23:58;8.10;99.90
563;DHT22;266;49.514;8.294;2022-11-25T17:26:35;8.30;99.90
563;DHT22;266;49.514;8.294;2022-11-25T17:29:06;8.70;99.90
563;DHT22;266;49.514;8.294;2022-11-25T17:31:37;8.90;99.90
563;DHT22;266;49.514;8.294;2022-11-25T17:34:10;8.90;99.90